Flight Track Log - Related Links

Times and Time Zones

All times are in EDT time to prevent confusion due to time zone crossing. See the QXE2361 flight status page for this flight to view local times or setup timezone preferences in your user account.

Time Position Orientation Groundspeed Altitude Reporting Facility
EDT Latitude Longitude Course Direction KTS MPH feet Rate Location/Type
Wed 10:08:00 AM 48.4077 -122.6578 194° South  Level FlightAware Approximate
Wed 10:09:00 AM 48.3327 -122.6883 191° South  Level FlightAware Approximate
Wed 10:10:00 AM 48.2564 -122.7101 191° South  Level FlightAware Approximate
Wed 10:11:00 AM 48.1846 -122.6821 160° South  Level FlightAware Approximate
Wed 10:12:00 AM 48.1117 -122.6416 160° South  Level FlightAware Approximate
Wed 10:13:00 AM 48.0380 -122.6052 165° South  Level FlightAware Approximate
Wed 10:14:00 AM 47.9629 -122.5751 165° South  Level FlightAware Approximate
Wed 10:15:00 AM 47.8882 -122.5434 159° South  Level FlightAware Approximate
Wed 10:16:00 AM 47.8154 -122.5028 159° South  Level FlightAware Approximate
Wed 10:17:00 AM 47.7426 -122.4623 159° South  Level FlightAware Approximate
Wed 10:18:00 AM 47.6698 -122.4219 160° South  Level FlightAware Approximate
Wed 10:19:00 AM 47.5969 -122.3818 161° South  Level FlightAware Approximate
Wed 10:20:00 AM 47.5233 -122.3449 161° South  Level FlightAware Approximate
Wed 10:21:00 AM 47.4605 -122.3135 161° South  Level FlightAware Approximate
Wed 10:22:00 AM 47.3957 -122.3000 180° South  Level FlightAware Approximate
Wed 10:23:00 AM 47.3294 -122.3000 180° South  Level FlightAware Approximate
Wed 10:24:00 AM 47.2631 -122.3000 180° South  Level FlightAware Approximate
Wed 10:25:00 AM 47.1968 -122.3000 180° South  Level FlightAware Approximate
Wed 10:26:00 AM 47.1305 -122.3000 180° South  Level FlightAware Approximate
Wed 10:27:00 AM 47.0642 -122.3000 180° South  Level FlightAware Approximate
Wed 10:28:00 AM 46.9980 -122.3000 180° South  Level FlightAware Approximate
Wed 10:29:00 AM 46.9317 -122.3000 180° South  Level FlightAware Approximate
Wed 10:30:00 AM 46.8654 -122.3000 180° South  Level FlightAware Approximate
Wed 10:31:00 AM 46.7991 -122.3000 180° South  Level FlightAware Approximate
Wed 10:32:00 AM 46.7328 -122.3000 180° South  Level FlightAware Approximate
Wed 10:33:00 AM 46.6665 -122.3000 180° South  Level FlightAware Approximate
Wed 10:34:00 AM 46.6002 -122.3000 180° South  Level FlightAware Approximate
Wed 10:35:00 AM 46.5339 -122.3000 180° South  Level FlightAware Approximate
Wed 10:36:00 AM 46.4677 -122.3000 180° South  Level FlightAware Approximate
Wed 10:37:00 AM 46.4014 -122.3000 180° South  Level FlightAware Approximate
Wed 10:38:00 AM 46.3351 -122.3000 180° South  Level FlightAware Approximate
Wed 10:39:00 AM 46.2688 -122.3000 180° South  Level FlightAware Approximate
Wed 10:40:00 AM 46.2061 -122.3263 203° Southwest  Level FlightAware Approximate
Wed 10:41:00 AM 46.1440 -122.3591 196° South  Level FlightAware Approximate
Wed 10:42:00 AM 46.0833 -122.3882 270° West  Level FlightAware Approximate
Wed 10:43:00 AM 46.0274 -122.4224 196° South  Level FlightAware Approximate
Wed 10:44:00 AM 45.9650 -122.4543 203° Southwest  Level FlightAware Approximate
Wed 10:45:00 AM 45.9067 -122.4973 224° Southwest  Level FlightAware Approximate
Wed 10:46:00 AM 45.8520 -122.5739 224° Southwest  Level FlightAware Approximate
Wed 10:47:00 AM 45.7921 -122.6413 215° Southwest  Level FlightAware Approximate
Wed 10:48:00 AM 45.7402 -122.7195 234° Southwest  Level FlightAware Approximate
Wed 10:49:00 AM 45.7621 -122.7955 145° Southeast  Level FlightAware Approximate
Wed 10:50:00 AM 45.6996 -122.7327 137° Southeast  Level FlightAware Approximate
Wed 10:51:00 AM 45.6435 -122.6585 139° Southeast  Level FlightAware Approximate
Wed 10:52:00 AM 45.5860 -122.5867 139° Southeast  Level FlightAware Approximate
Wed 10:53:00 AM 45.5833 -122.5833 139° Southeast  Level FlightAware Approximate
Wed 10:54:00 AM 45.5887 -122.5969 278° West  Level Estimated
Wed 10:55:00 AM 45.5887 -122.5969 139° Southeast  Level Estimated
Wed 10:56:00 AM 45.5887 -122.5969 120° Southeast  Level Estimated

Login

Don't have an account? Register now (free) for customized features, flight alerts, and more!